Time,TemperatureF,DewpointF,PressureIn,WindDirection,WindDirectionDegrees,WindSpeedMPH,WindSpeedGustMPH,Humidity,HourlyPrecipIn,Conditions,Clouds,dailyrainin,SolarRadiationWatts/m^2,SoftwareType,DateUTC
2013-09-08 00:01:00,63.0,56.0,-100.00,North,356,0.0,0.0,79,0.00,,,0.10,0.000000,,2013-09-08 07:01:00,
2013-09-08 00:42:00,62.0,55.0,-100.00,North,2,0.0,0.0,79,0.00,,,0.10,0.000000,,2013-09-08 07:42:00,
2013-09-08 00:52:00,62.0,55.0,-100.00,North,2,0.0,0.0,79,0.00,,,0.10,0.000000,,2013-09-08 07:52:00,
2013-09-08 01:02:00,62.0,55.0,-100.00,North,2,0.0,0.0,79,0.00,,,0.10,0.000000,,2013-09-08 08:02:00,
2013-09-08 01:22:00,64.0,56.0,-100.00,North,356,0.0,0.0,75,0.00,,,0.10,0.000000,,2013-09-08 08:22:00,
2013-09-08 01:32:00,64.0,56.0,-100.00,North,356,0.0,0.0,75,0.00,,,0.10,0.000000,,2013-09-08 08:32:00,
2013-09-08 01:42:00,64.0,56.0,-100.00,North,356,0.0,0.0,75,0.00,,,0.10,0.000000,,2013-09-08 08:42:00,
2013-09-08 01:52:00,64.0,56.0,-100.00,North,356,0.0,0.0,75,0.00,,,0.10,0.000000,,2013-09-08 08:52:00,
2013-09-08 02:02:00,64.0,56.0,-100.00,North,356,0.0,0.0,75,0.00,,,0.10,0.000000,,2013-09-08 09:02:00,
2013-09-08 02:03:00,64.0,56.0,-100.00,North,359,0.0,0.0,76,0.00,,,0.10,0.000000,,2013-09-08 09:03:00,
2013-09-08 02:43:00,64.0,56.0,-100.00,North,359,0.0,0.0,76,0.00,,,0.10,0.000000,,2013-09-08 09:43:00,
2013-09-08 02:54:00,64.0,56.0,-100.00,North,359,0.0,0.0,76,0.00,,,0.10,0.000000,,2013-09-08 09:54:00,
2013-09-08 03:42:00,64.0,56.0,-100.00,SSE,152,0.0,0.0,75,0.00,,,0.10,0.000000,,2013-09-08 10:42:00,
2013-09-08 03:53:00,64.0,56.0,-100.00,SSE,152,0.0,0.0,75,0.00,,,0.10,0.000000,,2013-09-08 10:53:00,
2013-09-08 04:02:00,64.0,56.0,-100.00,SSE,152,0.0,0.0,75,0.00,,,0.10,0.000000,,2013-09-08 11:02:00,
2013-09-08 04:42:00,62.0,55.0,-100.00,North,352,0.0,0.0,77,0.00,,,0.10,0.000000,,2013-09-08 11:42:00,
2013-09-08 04:52:00,62.0,55.0,-100.00,North,352,0.0,0.0,77,0.00,,,0.10,0.000000,,2013-09-08 11:52:00,
2013-09-08 05:02:00,62.0,55.0,-100.00,North,352,0.0,0.0,77,0.00,,,0.10,0.000000,,2013-09-08 12:02:00,
2013-09-08 05:42:00,65.0,55.0,-100.00,NNW,343,0.0,0.0,70,0.00,,,0.10,0.000000,,2013-09-08 12:42:00,
2013-09-08 05:52:00,65.0,55.0,-100.00,NNW,343,0.0,0.0,70,0.00,,,0.10,0.000000,,2013-09-08 12:52:00,
2013-09-08 06:01:00,65.0,55.0,-100.00,NNW,343,0.0,0.0,70,0.00,,,0.10,0.000000,,2013-09-08 13:01:00,
2013-09-08 06:42:00,63.0,54.0,-100.00,North,5,0.0,0.0,73,0.00,,,0.10,0.000000,,2013-09-08 13:42:00,
2013-09-08 06:52:00,63.0,54.0,-100.00,North,5,0.0,0.0,73,0.00,,,0.10,0.000000,,2013-09-08 13:52:00,
2013-09-08 07:02:00,63.0,54.0,-100.00,North,5,0.0,0.0,73,0.00,,,0.10,0.000000,,2013-09-08 14:02:00,
2013-09-08 07:42:00,64.0,54.0,-100.00,North,357,0.0,0.0,71,0.00,,,0.10,7.000000,,2013-09-08 14:42:00,
2013-09-08 07:52:00,64.0,54.0,-100.00,North,357,0.0,0.0,71,0.00,,,0.10,7.000000,,2013-09-08 14:52:00,
2013-09-08 08:02:00,64.0,54.0,-100.00,North,357,0.0,0.0,71,0.00,,,0.10,7.000000,,2013-09-08 15:02:00,
2013-09-08 08:03:00,62.0,62.0,-100.00,North,356,0.0,0.0,100,0.00,,,0.10,22.000000,,2013-09-08 15:03:00,
2013-09-08 08:23:00,62.0,62.0,-100.00,North,356,0.0,0.0,100,0.00,,,0.10,22.000000,,2013-09-08 15:23:00,
2013-09-08 08:34:00,62.0,62.0,-100.00,North,356,0.0,0.0,100,0.00,,,0.10,22.000000,,2013-09-08 15:34:00,
2013-09-08 08:45:00,62.0,62.0,-100.00,North,356,0.0,0.0,100,0.00,,,0.10,22.000000,,2013-09-08 15:45:00,
2013-09-08 08:54:00,62.0,62.0,-100.00,North,356,0.0,0.0,100,0.00,,,0.10,22.000000,,2013-09-08 15:54:00,
2013-09-08 09:03:00,63.0,63.0,-100.00,NW,316,0.0,0.0,99,0.10,,,0.20,96.000000,,2013-09-08 16:03:00,
2013-09-08 09:44:00,63.0,63.0,-100.00,NW,316,0.0,0.0,99,0.10,,,0.20,96.000000,,2013-09-08 16:44:00,
2013-09-08 09:53:00,63.0,63.0,-100.00,NW,316,0.0,0.0,99,0.10,,,0.20,96.000000,,2013-09-08 16:53:00,
2013-09-08 10:43:00,65.0,57.0,-100.00,NW,318,0.0,0.0,76,0.00,,,0.20,137.000000,,2013-09-08 17:43:00,
2013-09-08 10:53:00,65.0,57.0,-100.00,NW,318,0.0,0.0,76,0.00,,,0.20,137.000000,,2013-09-08 17:53:00,
2013-09-08 11:02:00,65.0,57.0,-100.00,NW,318,0.0,0.0,76,0.00,,,0.20,137.000000,,2013-09-08 18:02:00,
2013-09-08 11:22:00,64.0,59.0,-100.00,WNW,301,0.0,0.0,84,0.00,,,0.20,29.000000,,2013-09-08 18:22:00,
2013-09-08 11:32:00,64.0,59.0,-100.00,WNW,301,0.0,0.0,84,0.00,,,0.20,29.000000,,2013-09-08 18:32:00,
2013-09-08 11:42:00,64.0,59.0,-100.00,WNW,301,0.0,0.0,84,0.00,,,0.20,29.000000,,2013-09-08 18:42:00,
2013-09-08 11:52:00,64.0,59.0,-100.00,WNW,301,0.0,0.0,84,0.00,,,0.20,29.000000,,2013-09-08 18:52:00,
2013-09-08 12:01:00,64.0,59.0,-100.00,WNW,301,0.0,0.0,84,0.00,,,0.20,29.000000,,2013-09-08 19:01:00,
2013-09-08 12:03:00,63.0,63.0,-100.00,ENE,61,0.0,0.0,100,0.30,,,0.50,37.000000,,2013-09-08 19:03:00,
2013-09-08 12:42:00,63.0,63.0,-100.00,ENE,61,0.0,0.0,100,0.30,,,0.50,37.000000,,2013-09-08 19:42:00,
2013-09-08 12:52:00,63.0,63.0,-100.00,ENE,61,0.0,0.0,100,0.30,,,0.50,37.000000,,2013-09-08 19:52:00,
2013-09-08 13:42:00,68.0,61.0,-100.00,South,170,0.0,0.0,79,0.00,,,0.50,269.000000,,2013-09-08 20:42:00,
2013-09-08 13:53:00,68.0,61.0,-100.00,South,170,0.0,0.0,79,0.00,,,0.50,269.000000,,2013-09-08 20:53:00,
2013-09-08 14:02:00,68.0,61.0,-100.00,South,170,0.0,0.0,79,0.00,,,0.50,269.000000,,2013-09-08 21:02:00,
2013-09-08 14:03:00,67.0,58.0,-100.00,SW,235,0.0,0.0,74,0.00,,,0.50,227.000000,,2013-09-08 21:03:00,
2013-09-08 14:44:00,67.0,58.0,-100.00,SW,235,0.0,0.0,74,0.00,,,0.50,227.000000,,2013-09-08 21:44:00,
2013-09-08 14:54:00,67.0,58.0,-100.00,SW,235,0.0,0.0,74,0.00,,,0.50,227.000000,,2013-09-08 21:54:00,
2013-09-08 15:03:00,67.0,65.0,-100.00,NW,305,0.0,0.0,92,0.00,,,0.50,170.000000,,2013-09-08 22:03:00,
2013-09-08 15:44:00,67.0,65.0,-100.00,NW,305,0.0,0.0,92,0.00,,,0.50,170.000000,,2013-09-08 22:44:00,
2013-09-08 15:53:00,67.0,65.0,-100.00,NW,305,0.0,0.0,92,0.00,,,0.50,170.000000,,2013-09-08 22:53:00,
2013-09-08 16:22:00,69.0,62.0,-100.00,SE,127,0.0,0.0,78,0.00,,,0.50,265.000000,,2013-09-08 23:22:00,
2013-09-08 16:34:00,69.0,62.0,-100.00,SE,127,0.0,0.0,78,0.00,,,0.50,265.000000,,2013-09-08 23:34:00,
2013-09-08 16:42:00,69.0,62.0,-100.00,SE,127,0.0,0.0,78,0.00,,,0.50,265.000000,,2013-09-08 23:42:00,
2013-09-08 16:52:00,69.0,62.0,-100.00,SE,127,0.0,0.0,78,0.00,,,0.50,265.000000,,2013-09-08 23:52:00,
2013-09-08 17:02:00,69.0,62.0,-100.00,SE,127,0.0,0.0,78,0.00,,,0.50,265.000000,,2013-09-09 00:02:00,
2013-09-08 17:22:00,70.0,63.0,-100.00,SSE,147,0.0,0.0,78,0.00,,,-99.99,250.000000,,2013-09-09 00:22:00,
2013-09-08 17:32:00,70.0,63.0,-100.00,SSE,147,0.0,0.0,78,0.00,,,-99.99,250.000000,,2013-09-09 00:32:00,
2013-09-08 17:42:00,70.0,63.0,-100.00,SSE,147,0.0,0.0,78,0.00,,,-99.99,250.000000,,2013-09-09 00:42:00,
2013-09-08 17:52:00,70.0,63.0,-100.00,SSE,147,0.0,0.0,78,0.00,,,-99.99,250.000000,,2013-09-09 00:52:00,
2013-09-08 18:01:00,70.0,63.0,-100.00,SSE,147,0.0,0.0,78,0.00,,,-99.99,250.000000,,2013-09-09 01:01:00,
2013-09-08 18:42:00,65.0,65.0,-100.00,NNW,329,0.0,0.0,99,0.00,,,0.40,47.000000,,2013-09-09 01:42:00,
2013-09-08 18:52:00,65.0,65.0,-100.00,NNW,329,0.0,0.0,99,0.00,,,0.40,47.000000,,2013-09-09 01:52:00,
2013-09-08 19:02:00,65.0,65.0,-100.00,NNW,329,0.0,0.0,99,0.00,,,0.40,47.000000,,2013-09-09 02:02:00,
2013-09-08 19:42:00,61.0,61.0,-100.00,NNW,344,0.0,0.0,100,0.00,,,0.40,4.000000,,2013-09-09 02:42:00,
2013-09-08 19:53:00,61.0,61.0,-100.00,NNW,344,0.0,0.0,100,0.00,,,0.40,4.000000,,2013-09-09 02:53:00,
2013-09-08 20:02:00,61.0,61.0,-100.00,NNW,344,0.0,0.0,100,0.00,,,0.40,4.000000,,2013-09-09 03:02:00,
2013-09-08 20:03:00,62.0,62.0,-100.00,North,349,0.0,0.0,100,0.00,,,0.40,0.000000,,2013-09-09 03:03:00,
2013-09-08 20:22:00,62.0,62.0,-100.00,North,349,0.0,0.0,100,0.00,,,0.40,0.000000,,2013-09-09 03:22:00,
2013-09-08 20:34:00,62.0,62.0,-100.00,North,349,0.0,0.0,100,0.00,,,0.40,0.000000,,2013-09-09 03:34:00,
2013-09-08 20:44:00,62.0,62.0,-100.00,North,349,0.0,0.0,100,0.00,,,0.40,0.000000,,2013-09-09 03:44:00,
2013-09-08 20:55:00,62.0,62.0,-100.00,North,349,0.0,0.0,100,0.00,,,0.40,0.000000,,2013-09-09 03:55:00,
2013-09-08 21:03:00,61.0,61.0,-100.00,WSW,240,0.0,0.0,100,0.00,,,0.40,0.000000,,2013-09-09 04:03:00,
2013-09-08 21:43:00,61.0,61.0,-100.00,WSW,240,0.0,0.0,100,0.00,,,0.40,0.000000,,2013-09-09 04:43:00,
2013-09-08 21:54:00,61.0,61.0,-100.00,WSW,240,0.0,0.0,100,0.00,,,0.40,0.000000,,2013-09-09 04:54:00,
2013-09-08 22:23:00,63.0,63.0,-100.00,NNW,340,0.0,0.0,99,0.00,,,0.40,0.000000,,2013-09-09 05:23:00,
2013-09-08 22:34:00,63.0,63.0,-100.00,NNW,340,0.0,0.0,99,0.00,,,0.40,0.000000,,2013-09-09 05:34:00,
2013-09-08 22:43:00,63.0,63.0,-100.00,NNW,340,0.0,0.0,99,0.00,,,0.40,0.000000,,2013-09-09 05:43:00,
2013-09-08 22:53:00,63.0,63.0,-100.00,NNW,340,0.0,0.0,99,0.00,,,0.40,0.000000,,2013-09-09 05:53:00,
2013-09-08 23:02:00,63.0,63.0,-100.00,NNW,340,0.0,0.0,99,0.00,,,0.40,0.000000,,2013-09-09 06:02:00,
2013-09-08 23:22:00,60.0,60.0,-100.00,NNW,342,0.0,0.0,100,0.30,,,0.70,0.000000,,2013-09-09 06:22:00,
2013-09-08 23:32:00,60.0,60.0,-100.00,NNW,342,0.0,0.0,100,0.30,,,0.70,0.000000,,2013-09-09 06:32:00,
2013-09-08 23:42:00,60.0,60.0,-100.00,NNW,342,0.0,0.0,100,0.30,,,0.70,0.000000,,2013-09-09 06:42:00,
2013-09-08 23:52:00,60.0,60.0,-100.00,NNW,342,0.0,0.0,100,0.30,,,0.70,0.000000,,2013-09-09 06:52:00,